Time;durP1;ratioP1;P1;durP2;ratioP2;P2;SDS_P1;SDS_P2;PMS_P1;PMS_P2;Temp;Humidity;BMP_temperature;BMP_pressure;BME280_temperature;BME280_humidity;BME280_pressure;Samples;Min_cycle;Max_cycle;Signal;HPM_P1;HPM_P2
2021/05/03 00:02:16;;;;;;;7.97;3.50;;;;;;;-141.50;100.00;63355.56;5080060;28;20044;-80
2021/05/03 00:04:45;;;;;;;8.23;3.28;;;;;;;-141.50;100.00;63355.56;5080387;28;20502;-81
2021/05/03 00:07:11;;;;;;;6.10;3.45;;;;;;;-141.50;100.00;63355.56;5062914;28;20045;-82
2021/05/03 00:09:41;;;;;;;6.78;3.38;;;;;;;-141.50;100.00;63355.56;5081421;28;20040;-81
2021/05/03 00:12:08;;;;;;;8.45;3.63;;;;;;;-141.50;100.00;63355.56;5082352;28;20045;-80
2021/05/03 00:14:34;;;;;;;5.03;3.13;;;;;;;-141.50;100.00;63355.56;5066954;28;20048;-80
2021/05/03 00:17:00;;;;;;;8.10;3.78;;;;;;;-141.50;100.00;63355.56;5082241;28;20051;-81
2021/05/03 00:19:26;;;;;;;10.50;3.63;;;;;;;-141.50;100.00;63355.56;5081530;28;20041;-79
2021/05/03 00:21:52;;;;;;;6.93;3.70;;;;;;;-141.50;100.00;63355.56;5081739;28;20048;-79
2021/05/03 00:24:18;;;;;;;6.53;3.55;;;;;;;-141.50;100.00;63355.56;5081537;28;20048;-80
2021/05/03 00:26:47;;;;;;;8.23;3.92;;;;;;;-141.50;100.00;63355.56;5080280;28;20052;-80
2021/05/03 00:29:13;;;;;;;10.02;3.92;;;;;;;-141.50;100.00;63355.56;5066507;28;20154;-80
2021/05/03 00:31:39;;;;;;;9.93;3.80;;;;;;;-141.50;100.00;63355.56;5092064;28;20035;-76
2021/05/03 00:34:06;;;;;;;7.25;3.60;;;;;;;-141.50;100.00;63355.56;5094168;28;20044;-78
2021/05/03 00:36:32;;;;;;;6.50;3.63;;;;;;;-141.50;100.00;63355.56;5113344;28;20077;-78
2021/05/03 00:38:58;;;;;;;6.32;3.30;;;;;;;-141.50;100.00;63355.56;5092394;28;20046;-80
2021/05/03 00:41:24;;;;;;;6.93;3.58;;;;;;;-141.50;100.00;63355.56;5098567;28;20068;-79
2021/05/03 00:43:51;;;;;;;6.07;3.40;;;;;;;-141.50;100.00;63355.56;5105580;28;20048;-81
2021/05/03 00:46:21;;;;;;;12.07;3.78;;;;;;;-141.50;100.00;63355.56;5100892;28;20397;-79
2021/05/03 00:48:48;;;;;;;6.25;3.47;;;;;;;-141.50;100.00;63355.56;5099762;28;20036;-79
2021/05/03 00:51:14;;;;;;;6.68;3.38;;;;;;;-141.50;100.00;63355.56;5100264;28;20048;-77
2021/05/03 00:53:41;;;;;;;9.85;3.13;;;;;;;-141.50;100.00;63355.56;5099100;28;20044;-79
2021/05/03 00:56:07;;;;;;;8.15;3.95;;;;;;;-141.50;100.00;63355.56;5097542;28;20047;-79
2021/05/03 00:58:34;;;;;;;5.35;3.15;;;;;;;-141.50;100.00;63355.56;5101355;28;20044;-79
2021/05/03 01:01:02;;;;;;;7.70;3.70;;;;;;;-141.50;100.00;63355.56;5103005;28;20044;-77
2021/05/03 01:03:28;;;;;;;7.80;3.63;;;;;;;-141.50;100.00;63355.56;5103368;28;20388;-78
2021/05/03 01:05:54;;;;;;;7.13;3.08;;;;;;;-141.50;100.00;63355.56;5102364;28;20047;-80
2021/05/03 01:08:20;;;;;;;6.63;3.25;;;;;;;-141.50;100.00;63355.56;5097370;28;20551;-79
2021/05/03 01:10:46;;;;;;;7.35;3.50;;;;;;;-141.50;100.00;63355.56;5100667;28;20133;-79
2021/05/03 01:13:13;;;;;;;6.10;3.53;;;;;;;-141.50;100.00;63355.56;5095958;28;20135;-80
2021/05/03 01:15:39;;;;;;;6.68;3.30;;;;;;;-141.50;100.00;63355.56;5099306;28;20081;-80
2021/05/03 01:18:05;;;;;;;6.90;3.55;;;;;;;-141.50;100.00;63355.56;5083800;28;20048;-79
2021/05/03 01:20:37;;;;;;;9.45;3.47;;;;;;;-141.50;100.00;63355.56;5104202;28;20048;-77
2021/05/03 01:23:05;;;;;;;7.45;3.97;;;;;;;-141.50;100.00;63355.56;5101974;28;20056;-79
2021/05/03 01:25:38;;;;;;;10.68;3.30;;;;;;;-141.50;100.00;63355.56;5085538;28;20044;-79
2021/05/03 01:28:06;;;;;;;6.93;3.33;;;;;;;-141.50;100.00;63355.56;5084625;28;20055;-79
2021/05/03 01:30:35;;;;;;;6.07;3.33;;;;;;;-141.50;100.00;63355.56;5085024;28;20105;-77
2021/05/03 01:33:03;;;;;;;6.90;3.13;;;;;;;-141.50;100.00;63355.56;5102878;28;20040;-79
2021/05/03 01:35:29;;;;;;;7.97;3.40;;;;;;;-141.50;100.00;63355.56;5104182;28;20575;-77
2021/05/03 01:37:57;;;;;;;7.68;3.42;;;;;;;-141.50;100.00;63355.56;5085579;28;20046;-80
2021/05/03 01:40:27;;;;;;;6.38;3.17;;;;;;;-141.50;100.00;63355.56;5068048;28;20040;-80
2021/05/03 01:42:54;;;;;;;14.55;3.85;;;;;;;-141.50;100.00;63355.56;5102749;28;20199;-78
2021/05/03 01:45:26;;;;;;;8.18;3.42;;;;;;;-141.50;100.00;63355.56;5103582;28;20044;-80
2021/05/03 01:47:54;;;;;;;9.20;3.03;;;;;;;-141.50;100.00;63355.56;5103447;28;20046;-78
2021/05/03 01:50:22;;;;;;;6.22;3.28;;;;;;;-141.50;100.00;63355.56;5106449;28;20035;-80
2021/05/03 01:52:51;;;;;;;5.82;3.15;;;;;;;-141.50;100.00;63355.56;5106512;28;20078;-78
2021/05/03 01:55:18;;;;;;;10.50;3.63;;;;;;;-141.50;100.00;63355.56;5107120;28;20040;-78
2021/05/03 01:57:45;;;;;;;9.23;3.10;;;;;;;-141.50;100.00;63355.56;5106338;28;20048;-77
2021/05/03 02:00:12;;;;;;;7.65;3.50;;;;;;;-141.50;100.00;63355.56;5104509;28;20040;-79
2021/05/03 02:02:39;;;;;;;9.48;3.53;;;;;;;-141.50;100.00;63355.56;5103114;28;20036;-78
2021/05/03 02:05:06;;;;;;;8.23;3.50;;;;;;;-141.50;100.00;63355.56;5102885;28;20054;-79
2021/05/03 02:07:32;;;;;;;8.93;3.25;;;;;;;-141.50;100.00;63355.56;5100986;28;20601;-78
2021/05/03 02:09:58;;;;;;;6.45;3.70;;;;;;;-141.50;100.00;63355.56;5104090;28;20074;-79
2021/05/03 02:12:24;;;;;;;6.18;3.05;;;;;;;-141.50;100.00;63355.56;5102932;28;20044;-80
2021/05/03 02:14:50;;;;;;;10.38;3.58;;;;;;;-141.50;100.00;63355.56;5102495;28;20048;-80
2021/05/03 02:17:16;;;;;;;5.93;3.35;;;;;;;-141.50;100.00;63355.56;5101952;28;20125;-78
2021/05/03 02:19:43;;;;;;;6.30;3.20;;;;;;;-141.50;100.00;63355.56;5099410;28;20474;-79
2021/05/03 02:22:09;;;;;;;5.07;2.92;;;;;;;-141.50;100.00;63355.56;5098587;28;20123;-80
2021/05/03 02:24:35;;;;;;;6.70;3.67;;;;;;;-141.50;100.00;63355.56;5079412;28;20040;-80
2021/05/03 02:27:04;;;;;;;5.30;2.97;;;;;;;-141.50;100.00;63355.56;5098224;28;20048;-81
2021/05/03 02:29:30;;;;;;;9.20;3.35;;;;;;;-141.50;100.00;63355.56;5097829;28;20044;-80
2021/05/03 02:31:56;;;;;;;7.57;3.38;;;;;;;-141.50;100.00;63355.56;5097689;28;20047;-80
2021/05/03 02:34:22;;;;;;;4.88;2.50;;;;;;;-141.50;100.00;63355.56;5097691;28;20052;-80
2021/05/03 02:36:48;;;;;;;7.35;3.25;;;;;;;-141.50;100.00;63355.56;5098048;28;20040;-78
2021/05/03 02:39:14;;;;;;;6.40;3.08;;;;;;;-141.50;100.00;63355.56;5099017;28;20134;-79
2021/05/03 02:41:40;;;;;;;6.97;3.00;;;;;;;-141.50;100.00;63355.56;5074688;28;20055;-78
2021/05/03 02:44:08;;;;;;;4.75;3.03;;;;;;;-141.50;100.00;63355.56;5073930;28;20453;-79
2021/05/03 02:46:36;;;;;;;7.38;3.25;;;;;;;-141.50;100.00;63355.56;5092813;28;20043;-79
2021/05/03 02:49:04;;;;;;;7.05;3.35;;;;;;;-141.50;100.00;63355.56;5093848;28;20044;-78
2021/05/03 02:51:31;;;;;;;4.55;3.30;;;;;;;-141.50;100.00;63355.56;5094280;28;20047;-79
2021/05/03 02:53:57;;;;;;;10.57;3.00;;;;;;;-141.50;100.00;63355.56;5075491;28;20051;-77
2021/05/03 02:56:23;;;;;;;8.23;3.28;;;;;;;-141.50;100.00;63355.56;5094691;28;20274;-79
2021/05/03 02:58:49;;;;;;;5.90;3.05;;;;;;;-141.50;100.00;63355.56;5094803;28;20051;-79
2021/05/03 03:01:16;;;;;;;6.97;2.80;;;;;;;-141.50;100.00;63355.56;5094788;28;20079;-79
2021/05/03 03:03:43;;;;;;;7.55;4.05;;;;;;;-141.50;100.00;63355.56;5075739;28;20055;-79
2021/05/03 03:06:09;;;;;;;7.90;3.28;;;;;;;-141.50;100.00;63355.56;5095763;28;20048;-80
2021/05/03 03:08:35;;;;;;;5.05;3.25;;;;;;;-141.50;100.00;63355.56;5094383;28;20036;-79
2021/05/03 03:11:01;;;;;;;12.40;3.53;;;;;;;-141.50;100.00;63355.56;5076310;28;20054;-80
2021/05/03 03:13:30;;;;;;;6.15;3.17;;;;;;;-141.50;100.00;63355.56;5076518;28;20289;-80
2021/05/03 03:15:56;;;;;;;7.32;3.40;;;;;;;-141.50;100.00;63355.56;5095893;28;20043;-78
2021/05/03 03:18:22;;;;;;;6.10;3.35;;;;;;;-141.50;100.00;63355.56;5095342;28;20458;-78
2021/05/03 03:20:48;;;;;;;10.57;3.40;;;;;;;-141.50;100.00;63355.56;5099849;28;20055;-79
2021/05/03 03:23:15;;;;;;;5.50;3.30;;;;;;;-141.50;100.00;63355.56;5082449;28;20559;-77
2021/05/03 03:25:41;;;;;;;8.27;3.50;;;;;;;-141.50;100.00;63355.56;5082366;28;20043;-79
2021/05/03 03:28:08;;;;;;;5.40;3.30;;;;;;;-141.50;100.00;63355.56;5098193;28;20480;-80
2021/05/03 03:30:34;;;;;;;5.93;3.40;;;;;;;-141.50;100.00;63355.56;5100083;28;20054;-79
2021/05/03 03:33:00;;;;;;;7.32;3.42;;;;;;;-141.50;100.00;63355.56;5100283;28;20044;-79
2021/05/03 03:35:28;;;;;;;5.35;3.40;;;;;;;-141.50;100.00;63355.56;5100189;28;20222;-80
2021/05/03 03:37:55;;;;;;;6.85;3.03;;;;;;;-141.50;100.00;63355.56;5100022;28;20051;-79
2021/05/03 03:40:21;;;;;;;7.95;3.60;;;;;;;-141.50;100.00;63355.56;5100979;28;20040;-79
2021/05/03 03:42:47;;;;;;;5.22;3.25;;;;;;;-141.50;100.00;63355.56;5100841;28;20074;-78
2021/05/03 03:45:14;;;;;;;5.85;3.40;;;;;;;-141.50;100.00;63355.56;5087946;28;20063;-76
2021/05/03 03:47:41;;;;;;;7.07;3.83;;;;;;;-141.50;100.00;63355.56;5089276;28;20048;-77
2021/05/03 03:50:08;;;;;;;7.45;3.60;;;;;;;-141.50;100.00;63355.56;5111057;28;20047;-77
2021/05/03 03:52:37;;;;;;;6.22;3.35;;;;;;;-141.50;100.00;63355.56;5084302;28;20048;-78
2021/05/03 03:55:07;;;;;;;7.30;3.35;;;;;;;-141.50;100.00;63355.56;5099191;28;20046;-79
2021/05/03 03:57:33;;;;;;;7.70;3.95;;;;;;;-141.50;100.00;63355.56;5100323;28;20130;-79
2021/05/03 04:00:00;;;;;;;6.00;3.38;;;;;;;-141.50;100.00;63355.56;5099871;28;20032;-79
2021/05/03 04:02:29;;;;;;;6.13;3.20;;;;;;;-141.50;100.00;63355.56;5099715;28;20051;-78
2021/05/03 04:10:39;;;;;;;7.53;3.33;;;;;;;-141.50;100.00;63355.56;5100429;28;20040;-80
2021/05/03 04:26:26;;;;;;;8.77;3.55;;;;;;;-141.50;100.00;63355.56;5101527;28;20040;-79
2021/05/03 04:28:53;;;;;;;5.03;3.22;;;;;;;-141.50;100.00;63355.56;5094873;22;20056;-79
2021/05/03 04:31:22;;;;;;;9.13;3.60;;;;;;;-141.50;100.00;63355.56;5105072;28;20108;-82
2021/05/03 04:33:49;;;;;;;7.28;3.72;;;;;;;-141.50;100.00;63355.56;5078407;28;20517;-81
2021/05/03 04:36:16;;;;;;;12.48;3.80;;;;;;;-141.50;100.00;63355.56;5097701;28;20040;-82
2021/05/03 04:38:47;;;;;;;6.90;3.70;;;;;;;-141.50;100.00;63355.56;5081381;28;20118;-80
2021/05/03 04:41:14;;;;;;;7.80;4.13;;;;;;;-141.50;100.00;63355.56;5080857;28;20047;-81
2021/05/03 04:43:40;;;;;;;9.88;4.03;;;;;;;-141.50;100.00;63355.56;5097881;28;20052;-81
2021/05/03 04:46:07;;;;;;;8.48;3.75;;;;;;;-141.50;100.00;63355.56;5060201;28;20059;-80
2021/05/03 04:48:33;;;;;;;11.52;4.28;;;;;;;-141.50;100.00;63355.56;5075305;28;20614;-79
2021/05/03 04:51:00;;;;;;;6.93;4.00;;;;;;;-141.50;100.00;63355.56;5076650;28;20093;-80
2021/05/03 04:53:27;;;;;;;9.52;4.68;;;;;;;-141.50;100.00;63355.56;5052090;28;20123;-81
2021/05/03 04:55:59;;;;;;;8.20;4.53;;;;;;;-141.50;100.00;63355.56;5071928;28;20262;-81
2021/05/03 04:58:25;;;;;;;14.02;4.20;;;;;;;-141.50;100.00;63355.56;5072660;28;20096;-81
2021/05/03 05:00:51;;;;;;;7.35;4.00;;;;;;;-141.50;100.00;63355.56;5091070;28;20398;-81
2021/05/03 05:03:17;;;;;;;6.32;3.85;;;;;;;-141.50;100.00;63355.56;5072082;28;20044;-80
2021/05/03 05:05:46;;;;;;;8.05;4.22;;;;;;;-141.50;100.00;63355.56;5071967;28;20048;-80
2021/05/03 05:08:12;;;;;;;10.02;3.97;;;;;;;-141.50;100.00;63355.56;5089606;28;20085;-80
2021/05/03 05:10:38;;;;;;;10.85;4.30;;;;;;;-141.50;100.00;63355.56;5059515;28;20061;-81
2021/05/03 05:13:05;;;;;;;6.65;3.75;;;;;;;-141.50;100.00;63355.56;5075087;28;20066;-81
2021/05/03 05:15:31;;;;;;;7.70;3.78;;;;;;;-141.50;100.00;63355.56;5056097;28;20040;-81
2021/05/03 05:17:58;;;;;;;9.23;4.13;;;;;;;-141.50;100.00;63355.56;5059444;28;20063;-81
2021/05/03 05:20:24;;;;;;;8.88;4.25;;;;;;;-141.50;100.00;63355.56;5059093;28;20044;-82
2021/05/03 05:22:50;;;;;;;7.40;3.55;;;;;;;-141.50;100.00;63355.56;5072223;28;20067;-81
2021/05/03 05:25:16;;;;;;;11.65;4.05;;;;;;;-141.50;100.00;63355.56;5077744;28;20048;-82
2021/05/03 05:27:42;;;;;;;7.82;4.10;;;;;;;-141.50;100.00;63355.56;5087034;28;20032;-80
2021/05/03 05:30:09;;;;;;;7.53;4.10;;;;;;;-141.50;100.00;63355.56;5112430;28;20038;-81
2021/05/03 05:32:36;;;;;;;7.93;3.95;;;;;;;-141.50;100.00;63355.56;5094299;28;20055;-80
2021/05/03 05:35:03;;;;;;;7.22;3.70;;;;;;;-141.50;100.00;63355.56;5065280;28;20115;-82
2021/05/03 05:37:29;;;;;;;9.45;4.28;;;;;;;-141.50;100.00;63355.56;5053277;28;20045;-81
2021/05/03 05:39:55;;;;;;;7.15;4.00;;;;;;;-141.50;100.00;63355.56;5071253;28;20045;-82
2021/05/03 05:42:21;;;;;;;7.97;4.03;;;;;;;-141.50;100.00;63355.56;5080009;28;20068;-81
2021/05/03 05:44:47;;;;;;;7.93;3.92;;;;;;;-141.50;100.00;63355.56;5091719;28;20484;-82
2021/05/03 05:47:13;;;;;;;7.50;4.30;;;;;;;-141.50;100.00;63355.56;5114716;28;20077;-81
2021/05/03 05:49:41;;;;;;;9.82;4.00;;;;;;;-141.50;100.00;63355.56;5115524;28;20035;-81
2021/05/03 05:52:07;;;;;;;7.68;4.85;;;;;;;-141.50;100.00;63355.56;5114875;28;20441;-81
2021/05/03 05:54:33;;;;;;;10.52;4.80;;;;;;;-141.50;100.00;63355.56;5114830;28;20060;-81
2021/05/03 05:56:59;;;;;;;7.53;4.57;;;;;;;-141.50;100.00;63355.56;5114747;28;20377;-82
2021/05/03 05:59:25;;;;;;;9.65;4.63;;;;;;;-141.50;100.00;63355.56;5098158;28;20169;-81
2021/05/03 06:01:51;;;;;;;9.13;4.65;;;;;;;-141.50;100.00;63355.56;5116259;28;20123;-81
2021/05/03 06:04:18;;;;;;;10.30;4.93;;;;;;;-141.50;100.00;63355.56;5097091;28;20050;-80
2021/05/03 06:06:44;;;;;;;9.02;4.45;;;;;;;-141.50;100.00;63355.56;5078445;28;20050;-80
2021/05/03 06:09:10;;;;;;;7.47;4.15;;;;;;;-141.50;100.00;63355.56;5059106;28;20051;-80
2021/05/03 06:11:37;;;;;;;7.10;4.50;;;;;;;-141.50;100.00;63355.56;5077083;28;20058;-81
2021/05/03 06:14:03;;;;;;;7.03;4.35;;;;;;;-141.50;100.00;63355.56;5051310;28;20097;-80
2021/05/03 06:16:30;;;;;;;7.47;4.72;;;;;;;-141.50;100.00;63355.56;5045198;28;20040;-81
2021/05/03 06:18:56;;;;;;;10.32;4.50;;;;;;;-141.50;100.00;63355.56;5054340;28;20067;-80
2021/05/03 06:21:22;;;;;;;7.88;4.28;;;;;;;-141.50;100.00;63355.56;5053806;28;20045;-80
2021/05/03 06:23:49;;;;;;;8.02;5.13;;;;;;;-141.50;100.00;63355.56;5052484;28;20100;-80
2021/05/03 06:26:15;;;;;;;9.52;4.97;;;;;;;-141.50;100.00;63355.56;5080851;28;20572;-79
2021/05/03 06:28:41;;;;;;;7.97;5.10;;;;;;;-141.50;100.00;63355.56;5075735;28;20117;-78
2021/05/03 06:31:08;;;;;;;8.77;4.50;;;;;;;-141.50;100.00;63355.56;5033278;28;20135;-79
2021/05/03 06:33:34;;;;;;;8.68;4.40;;;;;;;-141.50;100.00;63355.56;5053874;28;20052;-79
2021/05/03 06:36:01;;;;;;;10.13;4.30;;;;;;;-141.50;100.00;63355.56;5073056;28;20469;-80
2021/05/03 06:38:28;;;;;;;7.97;4.05;;;;;;;-141.50;100.00;63355.56;5053302;28;20045;-79
2021/05/03 06:40:54;;;;;;;7.82;4.30;;;;;;;-141.50;100.00;63355.56;5053759;28;20076;-79
2021/05/03 06:43:20;;;;;;;5.75;4.10;;;;;;;-141.50;100.00;63355.56;5069401;28;20045;-78
2021/05/03 06:45:46;;;;;;;8.73;4.80;;;;;;;-141.50;100.00;63355.56;5045443;28;20048;-79
2021/05/03 06:48:13;;;;;;;11.25;4.90;;;;;;;-141.50;100.00;63355.56;5053052;28;20037;-78
2021/05/03 06:50:44;;;;;;;12.25;6.05;;;;;;;-141.50;100.00;63355.56;5053364;28;20055;-80
2021/05/03 06:53:12;;;;;;;10.63;5.43;;;;;;;-141.50;100.00;63355.56;5037369;28;20052;-80
2021/05/03 06:55:40;;;;;;;9.50;5.20;;;;;;;-141.50;100.00;63355.56;5054789;28;20056;-80
2021/05/03 06:58:06;;;;;;;8.68;5.30;;;;;;;-141.50;100.00;63355.56;5039398;28;20054;-80
2021/05/03 07:00:38;;;;;;;8.38;5.28;;;;;;;-141.50;100.00;63355.56;5028857;28;20519;-80
2021/05/03 07:03:06;;;;;;;9.98;5.43;;;;;;;-141.50;100.00;63355.56;5071585;28;20044;-80
2021/05/03 07:05:32;;;;;;;9.65;4.90;;;;;;;-141.50;100.00;63355.56;5057537;28;20051;-79
2021/05/03 07:07:58;;;;;;;8.18;4.93;;;;;;;-141.50;100.00;63355.56;5059455;28;20055;-81
2021/05/03 07:10:25;;;;;;;10.93;5.40;;;;;;;-141.50;100.00;63355.56;5057791;28;20135;-80
2021/05/03 07:12:51;;;;;;;6.75;4.47;;;;;;;-141.50;100.00;63355.56;5056052;28;20465;-80
2021/05/03 07:15:18;;;;;;;8.98;4.28;;;;;;;-141.50;100.00;63355.56;5058331;28;20044;-81
2021/05/03 07:17:46;;;;;;;7.95;4.40;;;;;;;-141.50;100.00;63355.56;5057601;28;20044;-80
2021/05/03 07:20:14;;;;;;;11.35;4.63;;;;;;;-141.50;100.00;63355.56;5075241;28;20045;-81
2021/05/03 07:22:41;;;;;;;7.68;3.83;;;;;;;-141.50;100.00;63355.56;5056892;28;20358;-80
2021/05/03 07:25:09;;;;;;;6.18;3.70;;;;;;;-141.50;100.00;63355.56;5040305;28;20075;-79
2021/05/03 07:27:36;;;;;;;6.38;3.28;;;;;;;-141.50;100.00;63355.56;5045973;28;20084;-80
2021/05/03 07:30:07;;;;;;;8.55;4.18;;;;;;;-141.50;100.00;63355.56;5102925;28;20040;-81
2021/05/03 07:32:35;;;;;;;9.68;4.07;;;;;;;-141.50;100.00;63355.56;5078852;28;20048;-80
2021/05/03 07:35:08;;;;;;;10.13;3.80;;;;;;;-141.50;100.00;63355.56;5079431;28;20048;-80
2021/05/03 07:37:35;;;;;;;11.52;3.67;;;;;;;-141.50;100.00;63355.56;5096433;28;20040;-80
2021/05/03 07:40:05;;;;;;;8.15;3.22;;;;;;;-141.50;100.00;63355.56;5062196;28;20050;-82
2021/05/03 07:42:34;;;;;;;6.10;3.50;;;;;;;-141.50;100.00;63355.56;5061238;28;20058;-80
2021/05/03 07:45:13;;;;;;;7.15;3.65;;;;;;;-141.50;100.00;63355.56;5078748;28;20104;-79
2021/05/03 07:47:44;;;;;;;10.25;4.15;;;;;;;-141.50;100.00;63355.56;5064008;28;20036;-79
2021/05/03 07:50:14;;;;;;;5.95;3.78;;;;;;;-141.50;100.00;63355.56;5061470;28;20049;-80
2021/05/03 07:52:40;;;;;;;7.30;3.45;;;;;;;-141.50;100.00;63355.56;5075370;28;20240;-79
2021/05/03 07:55:08;;;;;;;5.93;3.33;;;;;;;-141.50;100.00;63355.56;5075466;28;20036;-79
2021/05/03 07:57:34;;;;;;;7.72;3.40;;;;;;;-141.50;100.00;63355.56;5076802;28;20060;-79
2021/05/03 08:00:00;;;;;;;6.28;3.40;;;;;;;-141.50;100.00;63355.56;5060636;28;20040;-80
2021/05/03 08:02:27;;;;;;;6.45;3.25;;;;;;;-141.50;100.00;63355.56;5076882;28;20044;-80
2021/05/03 08:04:54;;;;;;;7.60;3.00;;;;;;;-141.50;100.00;63355.56;5076485;28;20070;-79
2021/05/03 08:07:20;;;;;;;5.53;3.00;;;;;;;-141.50;100.00;63355.56;5079443;28;20058;-80
2021/05/03 08:09:46;;;;;;;7.78;3.22;;;;;;;-141.50;100.00;63355.56;5062356;28;20059;-80
2021/05/03 08:12:12;;;;;;;6.07;3.13;;;;;;;-141.50;100.00;63355.56;5097381;28;20067;-80
2021/05/03 08:14:43;;;;;;;4.88;2.97;;;;;;;-141.50;100.00;63355.56;5079103;28;20384;-80
2021/05/03 08:17:12;;;;;;;6.07;3.10;;;;;;;-141.50;100.00;63355.56;5062136;28;20404;-81
2021/05/03 08:19:39;;;;;;;9.05;3.67;;;;;;;-141.50;100.00;63355.56;5078955;28;20044;-80
2021/05/03 08:22:05;;;;;;;7.15;3.35;;;;;;;-141.50;100.00;63355.56;5062217;28;20059;-79
2021/05/03 08:24:33;;;;;;;5.00;3.13;;;;;;;-141.50;100.00;63355.56;5061344;28;20051;-78
2021/05/03 08:27:01;;;;;;;4.88;2.90;;;;;;;-141.50;100.00;63355.56;5078607;28;20052;-79
2021/05/03 08:29:29;;;;;;;4.72;2.55;;;;;;;-141.50;100.00;63355.56;5042168;28;20177;-79
2021/05/03 08:31:56;;;;;;;4.85;2.30;;;;;;;-141.50;100.00;63355.56;5056249;28;20048;-79
2021/05/03 08:34:23;;;;;;;5.30;2.47;;;;;;;-141.50;100.00;63355.56;5048482;28;20041;-78
2021/05/03 08:36:52;;;;;;;5.63;2.33;;;;;;;-141.50;100.00;63355.56;5074390;28;20044;-80
2021/05/03 08:39:23;;;;;;;4.82;2.40;;;;;;;-141.50;100.00;63355.56;5077090;28;20101;-79
2021/05/03 08:41:49;;;;;;;6.63;2.85;;;;;;;-141.50;100.00;63355.56;5059098;28;20497;-79
2021/05/03 08:44:19;;;;;;;5.28;2.67;;;;;;;-141.50;100.00;63355.56;5058963;28;20044;-79
2021/05/03 08:46:46;;;;;;;4.55;2.00;;;;;;;-141.50;100.00;63355.56;5059123;28;20497;-79
2021/05/03 08:49:23;;;;;;;4.45;1.88;;;;;;;-141.50;100.00;63355.56;5057166;28;20049;-78
2021/05/03 08:52:00;;;;;;;5.57;1.92;;;;;;;-141.50;100.00;63355.56;5075098;28;20041;-77
2021/05/03 08:57:00;;;;;;;6.28;1.90;;;;;;;-141.50;100.00;63355.56;5058490;28;20052;-79
2021/05/03 08:59:26;;;;;;;2.67;1.95;;;;;;;-141.50;100.00;63355.56;5041898;28;20135;-81
2021/05/03 09:01:53;;;;;;;7.35;2.03;;;;;;;-141.50;100.00;63355.56;5076100;28;20041;-80
2021/05/03 09:04:19;;;;;;;5.38;1.80;;;;;;;-141.50;100.00;63355.56;5058273;28;20045;-80
2021/05/03 09:07:04;;;;;;;3.03;1.92;;;;;;;-141.50;100.00;63355.56;5058359;28;20098;-80
2021/05/03 09:09:36;;;;;;;3.45;1.98;;;;;;;-141.50;100.00;63355.56;5057653;28;20036;-80
2021/05/03 09:12:08;;;;;;;4.50;1.20;;;;;;;-141.50;100.00;63355.56;5041989;28;20106;-80
2021/05/03 09:14:53;;;;;;;3.70;1.30;;;;;;;-141.50;100.00;63355.56;5074232;28;20070;-81
2021/05/03 09:17:34;;;;;;;2.25;1.42;;;;;;;-141.50;100.00;63355.56;5042614;28;20072;-81
2021/05/03 09:20:05;;;;;;;5.20;1.42;;;;;;;-141.50;100.00;63355.56;5058643;28;20493;-80
2021/05/03 09:22:37;;;;;;;2.13;1.50;;;;;;;-141.50;100.00;63355.56;5057713;28;20044;-80
2021/05/03 09:25:41;;;;;;;2.00;1.50;;;;;;;-141.50;100.00;63355.56;5056995;28;20358;-80
2021/05/03 09:28:26;;;;;;;5.22;1.20;;;;;;;-141.50;100.00;63355.56;5036663;28;20052;-80
2021/05/03 09:30:56;;;;;;;3.55;1.25;;;;;;;-141.50;100.00;63355.56;5038407;28;20050;-81
2021/05/03 09:33:24;;;;;;;2.60;1.50;;;;;;;-141.50;100.00;63355.56;5059776;28;20050;-80
2021/05/03 09:35:57;;;;;;;3.50;1.73;;;;;;;-141.50;100.00;63355.56;5042342;28;20049;-80
2021/05/03 09:38:38;;;;;;;4.28;1.50;;;;;;;-141.50;100.00;63355.56;5058097;28;20128;-82
2021/05/03 09:41:27;;;;;;;2.80;1.33;;;;;;;-141.50;100.00;63355.56;5057787;28;20047;-81
2021/05/03 09:44:03;;;;;;;3.55;1.77;;;;;;;-141.50;100.00;63355.56;5058045;28;20052;-80
2021/05/03 09:46:40;;;;;;;6.40;2.00;;;;;;;-141.50;100.00;63355.56;5042021;28;20041;-81
2021/05/03 09:49:12;;;;;;;2.60;1.70;;;;;;;-141.50;100.00;63355.56;5070301;28;20031;-81
2021/05/03 09:51:44;;;;;;;5.20;1.67;;;;;;;-141.50;100.00;63355.56;5077318;28;20033;-80
2021/05/03 09:54:12;;;;;;;2.63;1.60;;;;;;;-141.50;100.00;63355.56;5076104;28;20086;-80
2021/05/03 09:56:59;;;;;;;1.73;1.33;;;;;;;-141.50;100.00;63355.56;5056854;28;20059;-80
2021/05/03 09:59:45;;;;;;;4.47;1.50;;;;;;;-141.50;100.00;63355.56;5056482;28;20068;-81
2021/05/03 10:02:25;;;;;;;6.93;1.70;;;;;;;-141.50;100.00;63355.56;5039492;28;20519;-80
2021/05/03 10:07:39;;;;;;;3.78;1.52;;;;;;;-141.50;100.00;63355.56;5076957;28;20048;-79
2021/05/03 10:10:38;;;;;;;4.90;1.85;;;;;;;-141.50;100.00;63355.56;5064288;28;20068;-78
2021/05/03 10:12:58;;;;;;;2.45;1.65;;;;;;;-141.50;100.00;63355.56;5085808;28;20064;-80
2021/05/03 10:15:24;;;;;;;3.35;1.80;;;;;;;-141.50;100.00;63355.56;5073557;23;20126;-82
2021/05/03 10:17:51;;;;;;;2.17;1.42;;;;;;;-141.50;100.00;63355.56;5087460;28;20175;-79
2021/05/03 10:20:20;;;;;;;4.22;1.83;;;;;;;-141.50;100.00;63355.56;5091967;28;20094;-78
2021/05/03 10:22:55;;;;;;;2.78;1.52;;;;;;;-141.50;100.00;63355.56;5072732;28;20083;-80
2021/05/03 10:25:22;;;;;;;;;;;;;;;-141.50;100.00;63355.56;5093122;28;20047;-81
2021/05/03 10:27:48;;;;;;;;;;;;;;;-141.50;100.00;63355.56;5089756;28;19931;-79
2021/05/03 10:30:19;;;;;;;5.78;1.48;;;;;;;-141.50;100.00;63355.56;5089521;28;19928;-80
2021/05/03 10:33:06;;;;;;;5.30;1.60;;;;;;;-141.50;100.00;63355.56;5090145;28;20058;-81
2021/05/03 10:35:37;;;;;;;3.90;1.50;;;;;;;-141.50;100.00;63355.56;5099276;28;20048;-79
2021/05/03 10:38:04;;;;;;;3.08;1.45;;;;;;;-141.50;100.00;63355.56;5094087;28;20048;-80
2021/05/03 10:40:33;;;;;;;4.00;1.80;;;;;;;-141.50;100.00;63355.56;5107289;28;20040;-82
2021/05/03 10:43:02;;;;;;;2.13;1.58;;;;;;;-141.50;100.00;63355.56;5097672;28;20047;-81
2021/05/03 10:51:44;;;;;;;4.20;1.70;;;;;;;-141.50;100.00;63355.56;5111927;28;20039;-81
2021/05/03 10:54:28;;;;;;;3.92;1.60;;;;;;;-141.50;100.00;63355.56;5114309;28;20053;-80
2021/05/03 10:56:57;;;;;;;2.72;1.35;;;;;;;-141.50;100.00;63355.56;5123539;27;20039;-81
2021/05/03 10:59:23;;;;;;;2.72;1.60;;;;;;;-141.50;100.00;63355.56;5114429;28;20044;-77
2021/05/03 11:01:55;;;;;;;1.83;1.27;;;;;;;-141.50;100.00;63355.56;5110828;28;20043;-80
2021/05/03 11:04:33;;;;;;;3.33;1.58;;;;;;;-141.50;100.00;63355.56;5108693;28;20107;-81
2021/05/03 11:07:04;;;;;;;4.70;1.80;;;;;;;-141.50;100.00;63355.56;5108568;28;20051;-80
2021/05/03 11:09:31;;;;;;;3.00;1.48;;;;;;;-141.50;100.00;63355.56;5106854;28;20254;-79
2021/05/03 11:12:06;;;;;;;3.95;1.80;;;;;;;-141.50;100.00;63355.56;5100983;28;20055;-81
2021/05/03 11:15:02;;;;;;;;;;;;;;;-141.50;100.00;63355.56;5111581;28;20051;-81
2021/05/03 11:17:28;;;;;;;1.60;1.20;;;;;;;-141.50;100.00;63355.56;5121015;28;19920;-79
2021/05/03 11:22:47;;;;;;;2.22;1.40;;;;;;;-141.50;100.00;63355.56;5150061;28;20039;-79
2021/05/03 11:25:23;;;;;;;6.05;2.03;;;;;;;-141.50;100.00;63355.56;5116315;28;20077;-79
2021/05/03 11:28:00;;;;;;;4.25;2.10;;;;;;;-141.50;100.00;63355.56;5124589;28;20046;-78
2021/05/03 11:33:01;;;;;;;2.33;1.60;;;;;;;-141.50;100.00;63355.56;5122000;28;20047;-80
2021/05/03 11:38:08;;;;;;;5.72;2.00;;;;;;;-141.50;100.00;63355.56;5105737;28;20039;-79
2021/05/03 11:40:57;;;;;;;3.75;1.80;;;;;;;-141.50;100.00;63355.56;5120180;28;20036;-79
2021/05/03 11:46:31;;;;;;;3.22;1.60;;;;;;;-141.50;100.00;63355.56;5095637;28;20060;-82
2021/05/03 11:49:14;;;;;;;3.88;1.67;;;;;;;-141.50;100.00;63355.56;5094546;28;20052;-78
2021/05/03 11:51:50;;;;;;;2.22;1.38;;;;;;;-141.50;100.00;63355.56;5118299;28;20034;-81
2021/05/03 11:54:30;;;;;;;;;;;;;;;-141.50;100.00;63355.56;5115383;28;20040;-79
2021/05/03 11:57:03;;;;;;;3.83;1.70;;;;;;;-141.50;100.00;63355.56;5097404;28;20333;-80
2021/05/03 11:59:30;;;;;;;2.20;1.60;;;;;;;-141.50;100.00;63355.56;5081106;28;20127;-77